createdAt,value
2023-03-29T00:00:05.959Z,96439.00
2023-03-29T00:01:06.067Z,96437.00
2023-03-29T00:02:06.104Z,96427.00
2023-03-29T00:03:06.339Z,96429.00
2023-03-29T00:04:06.464Z,96427.00
2023-03-29T00:05:05.276Z,96427.00
2023-03-29T00:06:05.349Z,96429.00
2023-03-29T00:07:06.425Z,96437.00
2023-03-29T00:08:06.482Z,96439.00
2023-03-29T00:09:06.554Z,96429.00
2023-03-29T00:10:05.592Z,96437.00
2023-03-29T00:11:06.673Z,96429.00
2023-03-29T00:12:05.705Z,96429.00
2023-03-29T00:13:06.781Z,96437.00
2023-03-29T00:14:06.843Z,96437.00
2023-03-29T00:15:06.918Z,96443.00
2023-03-29T00:16:06.965Z,96447.00
2023-03-29T00:17:07.146Z,96449.00
2023-03-29T00:18:07.259Z,96451.00
2023-03-29T00:19:07.158Z,96449.00
2023-03-29T00:20:07.218Z,96447.00
2023-03-29T00:21:07.292Z,96451.00
2023-03-29T00:22:07.356Z,96449.00
2023-03-29T00:23:06.406Z,96449.00
2023-03-29T00:24:07.464Z,96449.00
2023-03-29T00:25:07.549Z,96449.00
2023-03-29T00:26:08.315Z,96451.00
2023-03-29T00:27:07.634Z,96454.00
2023-03-29T00:28:06.699Z,96456.00
2023-03-29T00:29:07.761Z,96462.00
2023-03-29T00:30:07.841Z,96466.00
2023-03-29T00:31:07.952Z,96472.00
2023-03-29T00:32:07.960Z,96476.00
2023-03-29T00:33:08.113Z,96480.00
2023-03-29T00:34:08.070Z,96480.00
2023-03-29T00:35:08.137Z,96486.00
2023-03-29T00:36:08.255Z,96492.00
2023-03-29T00:37:08.275Z,96488.00
2023-03-29T00:38:08.336Z,96492.00
2023-03-29T00:39:08.416Z,96498.00
2023-03-29T00:40:08.450Z,96498.00
2023-03-29T00:41:07.508Z,96499.00
2023-03-29T00:42:08.590Z,96499.00
2023-03-29T00:43:08.633Z,96499.00
2023-03-29T00:44:07.688Z,96499.00
2023-03-29T00:45:07.760Z,96498.00
2023-03-29T00:46:08.806Z,96499.00
2023-03-29T00:47:08.854Z,96499.00
2023-03-29T00:48:08.543Z,96503.00
2023-03-29T00:49:08.978Z,96496.00
2023-03-29T00:50:09.012Z,96496.00
2023-03-29T00:51:09.969Z,96498.00
2023-03-29T00:52:09.089Z,96496.00
2023-03-29T00:53:09.150Z,96498.00
2023-03-29T00:54:09.121Z,96499.00
2023-03-29T00:55:09.134Z,96501.00
2023-03-29T00:56:08.131Z,96505.00
2023-03-29T00:57:08.154Z,96501.00
2023-03-29T00:58:09.166Z,96505.00
2023-03-29T00:59:09.144Z,96501.00
2023-03-29T01:00:09.166Z,96505.00
2023-03-29T01:01:09.162Z,96505.00
2023-03-29T01:02:08.240Z,96499.00
2023-03-29T01:03:09.257Z,96499.00
2023-03-29T01:04:08.292Z,96496.00
2023-03-29T01:05:09.228Z,96496.00
2023-03-29T01:06:09.218Z,96499.00
2023-03-29T01:07:08.372Z,96499.00
2023-03-29T01:08:09.290Z,96503.00
2023-03-29T01:09:08.291Z,96505.00
2023-03-29T01:10:09.311Z,96507.00
2023-03-29T01:11:08.334Z,96507.00
2023-03-29T01:12:09.331Z,96505.00
2023-03-29T01:13:09.364Z,96503.00
2023-03-29T01:14:08.397Z,96501.00
2023-03-29T01:15:09.415Z,96501.00
2023-03-29T01:16:09.489Z,96499.00
2023-03-29T01:17:09.473Z,96498.00
2023-03-29T01:18:08.634Z,96496.00
2023-03-29T01:19:09.596Z,96498.00
2023-03-29T01:20:09.647Z,96499.00
2023-03-29T01:21:09.727Z,96499.00
2023-03-29T01:22:09.709Z,96499.00
2023-03-29T01:23:09.720Z,96499.00
2023-03-29T01:24:09.781Z,96501.00
2023-03-29T01:25:08.759Z,96503.00
2023-03-29T01:26:09.768Z,96503.00
2023-03-29T01:27:09.766Z,96509.00
2023-03-29T01:28:09.778Z,96509.00
2023-03-29T01:29:09.785Z,96507.00
2023-03-29T01:30:08.818Z,96509.00
2023-03-29T01:31:09.789Z,96511.00
2023-03-29T01:32:09.928Z,96511.00
2023-03-29T01:33:09.804Z,96511.00
2023-03-29T01:34:08.790Z,96509.00
2023-03-29T01:35:09.815Z,96509.00
2023-03-29T01:36:08.887Z,96507.00
2023-03-29T01:37:09.860Z,96503.00
2023-03-29T01:38:09.843Z,96503.00
2023-03-29T01:39:09.871Z,96503.00
2023-03-29T01:40:09.876Z,96505.00
2023-03-29T01:41:09.903Z,96507.00
2023-03-29T01:42:08.897Z,96507.00
2023-03-29T01:43:09.918Z,96499.00
2023-03-29T01:44:09.893Z,96496.00
2023-03-29T01:45:09.904Z,96492.00
2023-03-29T01:46:09.942Z,96492.00
2023-03-29T01:47:09.971Z,96496.00
2023-03-29T01:48:09.937Z,96499.00
2023-03-29T01:49:09.927Z,96499.00
2023-03-29T01:50:09.938Z,96498.00
2023-03-29T01:51:08.965Z,96492.00
2023-03-29T01:52:09.985Z,96492.00
2023-03-29T01:53:10.047Z,96496.00
2023-03-29T01:54:10.026Z,96501.00
2023-03-29T01:55:09.041Z,96501.00
2023-03-29T01:56:10.041Z,96499.00
2023-03-29T01:57:10.103Z,96496.00
2023-03-29T01:58:10.145Z,96494.00
2023-03-29T01:59:10.203Z,96496.00
2023-03-29T02:00:10.263Z,96499.00
2023-03-29T02:01:09.330Z,96499.00
2023-03-29T02:02:10.426Z,96496.00
2023-03-29T02:03:10.630Z,96490.00
2023-03-29T02:04:10.517Z,96490.00
2023-03-29T02:05:10.545Z,96488.00
2023-03-29T02:06:09.595Z,96492.00
2023-03-29T02:07:10.674Z,96494.00
2023-03-29T02:08:10.713Z,96492.00
2023-03-29T02:09:10.859Z,96490.00
2023-03-29T02:10:10.847Z,96486.00
2023-03-29T02:11:10.914Z,96484.00
2023-03-29T02:12:10.971Z,96482.00
2023-03-29T02:13:11.026Z,96486.00
2023-03-29T02:14:10.090Z,96494.00
2023-03-29T02:15:11.213Z,96499.00
2023-03-29T02:16:10.262Z,96496.00
2023-03-29T02:17:11.269Z,96490.00
2023-03-29T02:18:11.319Z,96482.00
2023-03-29T02:19:10.353Z,96480.00
2023-03-29T02:20:11.392Z,96482.00
2023-03-29T02:21:11.437Z,96482.00
2023-03-29T02:22:11.464Z,96478.00
2023-03-29T02:23:11.522Z,96470.00
2023-03-29T02:24:11.555Z,96468.00
2023-03-29T02:25:11.603Z,96468.00
2023-03-29T02:26:10.594Z,96466.00
2023-03-29T02:27:10.637Z,96458.00
2023-03-29T02:28:10.675Z,96447.00
2023-03-29T02:29:11.698Z,96449.00
2023-03-29T02:30:11.732Z,96451.00
2023-03-29T02:31:11.773Z,96454.00
2023-03-29T02:32:11.772Z,96454.00
2023-03-29T02:33:11.804Z,96456.00
2023-03-29T02:34:11.823Z,96456.00
2023-03-29T02:35:11.849Z,96454.00
2023-03-29T02:36:11.886Z,96449.00
2023-03-29T02:37:11.895Z,96451.00
2023-03-29T02:38:11.885Z,96449.00
2023-03-29T02:39:10.905Z,96445.00
2023-03-29T02:40:11.951Z,96437.00
2023-03-29T02:41:11.972Z,96423.00
2023-03-29T02:42:11.968Z,96423.00
2023-03-29T02:43:11.981Z,96427.00
2023-03-29T02:44:10.966Z,96423.00
2023-03-29T02:45:12.006Z,96423.00
2023-03-29T02:46:12.024Z,96421.00
2023-03-29T02:47:11.997Z,96421.00
2023-03-29T02:48:11.998Z,96423.00
2023-03-29T02:49:11.990Z,96423.00
2023-03-29T02:50:12.005Z,96415.00
2023-03-29T02:51:12.000Z,96419.00
2023-03-29T02:52:12.024Z,96423.00
2023-03-29T02:53:12.039Z,96423.00
2023-03-29T02:54:12.018Z,96429.00
2023-03-29T02:55:12.024Z,96437.00
2023-03-29T02:56:12.049Z,96429.00
2023-03-29T02:57:12.095Z,96429.00
2023-03-29T02:58:11.055Z,96429.00
2023-03-29T02:59:12.036Z,96427.00
2023-03-29T03:00:11.044Z,96425.00
2023-03-29T03:01:12.044Z,96423.00
2023-03-29T03:02:12.106Z,96423.00
2023-03-29T03:03:11.111Z,96421.00
2023-03-29T03:04:12.110Z,96417.00
2023-03-29T03:05:11.047Z,96413.00
2023-03-29T03:06:11.062Z,96407.00
2023-03-29T03:07:12.042Z,96399.00
2023-03-29T03:08:12.033Z,96397.00
2023-03-29T03:09:12.036Z,96393.00
2023-03-29T03:10:12.053Z,96393.00
2023-03-29T03:11:12.037Z,96401.00
2023-03-29T03:12:12.048Z,96401.00
2023-03-29T03:13:11.053Z,96405.00
2023-03-29T03:14:12.034Z,96403.00
2023-03-29T03:15:12.018Z,96399.00
2023-03-29T03:16:12.072Z,96405.00
2023-03-29T03:17:12.048Z,96403.00
2023-03-29T03:18:12.021Z,96405.00
2023-03-29T03:19:12.016Z,96403.00
2023-03-29T03:20:12.015Z,96397.00
2023-03-29T03:21:12.003Z,96397.00
2023-03-29T03:22:12.120Z,96401.00
2023-03-29T03:23:11.992Z,96407.00
2023-03-29T03:24:12.009Z,96405.00
2023-03-29T03:25:12.021Z,96399.00
2023-03-29T03:26:12.004Z,96395.00
2023-03-29T03:27:11.999Z,96395.00
2023-03-29T03:28:12.009Z,96399.00
2023-03-29T03:29:12.034Z,96405.00
2023-03-29T03:30:12.060Z,96411.00
2023-03-29T03:31:12.057Z,96411.00
2023-03-29T03:32:12.033Z,96411.00
2023-03-29T03:33:12.045Z,96409.00
2023-03-29T03:34:12.074Z,96403.00
2023-03-29T03:35:11.089Z,96405.00
2023-03-29T03:36:12.199Z,96407.00
2023-03-29T03:37:12.089Z,96407.00
2023-03-29T03:38:11.061Z,96409.00
2023-03-29T03:39:12.075Z,96411.00
2023-03-29T03:40:12.216Z,96411.00
2023-03-29T03:41:12.085Z,96417.00
2023-03-29T03:42:11.086Z,96413.00
2023-03-29T03:43:12.075Z,96407.00
2023-03-29T03:44:12.091Z,96407.00
2023-03-29T03:45:12.119Z,96405.00
2023-03-29T03:46:12.151Z,96403.00
2023-03-29T03:47:11.075Z,96403.00
2023-03-29T03:48:12.095Z,96409.00
2023-03-29T03:49:12.093Z,96413.00
2023-03-29T03:50:12.090Z,96413.00
2023-03-29T03:51:12.086Z,96411.00
2023-03-29T03:52:12.090Z,96407.00
2023-03-29T03:53:12.070Z,96403.00
2023-03-29T03:54:12.072Z,96403.00
2023-03-29T03:55:12.069Z,96403.00
2023-03-29T03:56:11.090Z,96403.00
2023-03-29T03:57:11.150Z,96399.00
2023-03-29T03:58:12.112Z,96397.00
2023-03-29T03:59:12.119Z,96391.00
2023-03-29T04:00:11.108Z,96391.00
2023-03-29T04:01:12.133Z,96388.00
2023-03-29T04:02:11.149Z,96386.00
2023-03-29T04:03:12.199Z,96384.00
2023-03-29T04:04:12.161Z,96382.00
2023-03-29T04:05:12.139Z,96382.00
2023-03-29T04:06:12.139Z,96380.00
2023-03-29T04:07:12.144Z,96382.00
2023-03-29T04:08:12.134Z,96382.00
2023-03-29T04:09:12.151Z,96386.00
2023-03-29T04:10:11.204Z,96388.00
2023-03-29T04:11:12.167Z,96388.00
2023-03-29T04:12:11.192Z,96386.00
2023-03-29T04:13:12.189Z,96388.00
2023-03-29T04:14:11.210Z,96390.00
2023-03-29T04:15:12.301Z,96388.00
2023-03-29T04:16:12.282Z,96386.00
2023-03-29T04:17:12.241Z,96388.00
2023-03-29T04:18:12.328Z,96390.00
2023-03-29T04:19:11.262Z,96391.00
2023-03-29T04:20:12.292Z,96391.00
2023-03-29T04:21:12.304Z,96391.00
2023-03-29T04:22:12.311Z,96393.00
2023-03-29T04:23:12.305Z,96397.00
2023-03-29T04:24:12.318Z,96403.00
2023-03-29T04:25:12.336Z,96403.00
2023-03-29T04:26:12.360Z,96399.00
2023-03-29T04:27:12.365Z,96399.00
2023-03-29T04:28:12.390Z,96397.00
2023-03-29T04:29:12.378Z,96399.00
2023-03-29T04:30:11.398Z,96397.00
2023-03-29T04:31:11.456Z,96391.00
2023-03-29T04:32:12.410Z,96395.00
2023-03-29T04:33:12.490Z,96395.00
2023-03-29T04:34:12.437Z,96395.00
2023-03-29T04:35:12.435Z,96393.00
2023-03-29T04:36:12.498Z,96393.00
2023-03-29T04:37:12.435Z,96390.00
2023-03-29T04:38:12.437Z,96390.00
2023-03-29T04:39:12.446Z,96384.00
2023-03-29T04:40:12.456Z,96380.00
2023-03-29T04:41:12.459Z,96380.00
2023-03-29T04:42:12.459Z,96380.00
2023-03-29T04:43:12.002Z,96376.00
2023-03-29T04:44:12.449Z,96372.00
2023-03-29T04:45:12.516Z,96366.00
2023-03-29T04:46:12.530Z,96368.00
2023-03-29T04:47:12.471Z,96374.00
2023-03-29T04:48:12.566Z,96376.00
2023-03-29T04:49:12.536Z,96372.00
2023-03-29T04:50:12.521Z,96364.00
2023-03-29T04:51:12.514Z,96362.00
2023-03-29T04:52:12.536Z,96362.00
2023-03-29T04:53:12.541Z,96362.00
2023-03-29T04:54:12.554Z,96360.00
2023-03-29T04:55:11.535Z,96358.00
2023-03-29T04:56:12.550Z,96358.00
2023-03-29T04:57:12.597Z,96358.00
2023-03-29T04:58:12.575Z,96358.00
2023-03-29T04:59:12.551Z,96358.00
2023-03-29T05:00:12.552Z,96356.00
2023-03-29T05:01:12.568Z,96356.00
2023-03-29T05:02:12.620Z,96356.00
2023-03-29T05:03:12.600Z,96352.00
2023-03-29T05:04:13.018Z,96350.00
2023-03-29T05:06:11.706Z,96352.00
2023-03-29T05:07:12.585Z,96350.00
2023-03-29T05:08:12.665Z,96344.00
2023-03-29T05:09:12.622Z,96346.00
2023-03-29T05:10:12.655Z,96346.00
2023-03-29T05:11:12.632Z,96352.00
2023-03-29T05:14:11.612Z,96352.00
2023-03-29T05:15:12.637Z,96352.00
2023-03-29T05:16:12.724Z,96356.00
2023-03-29T05:17:12.681Z,96358.00
2023-03-29T05:18:11.738Z,96356.00
2023-03-29T05:19:12.668Z,96356.00
2023-03-29T05:20:12.674Z,96360.00
2023-03-29T05:21:12.710Z,96358.00
2023-03-29T05:25:11.664Z,96356.00
2023-03-29T05:26:12.687Z,96362.00
2023-03-29T05:29:11.663Z,96366.00
2023-03-29T05:30:12.633Z,96366.00
2023-03-29T05:31:15.416Z,96372.00
2023-03-29T05:36:11.638Z,96354.00
2023-03-29T05:37:12.620Z,96350.00
2023-03-29T05:38:11.601Z,96348.00
2023-03-29T05:39:12.603Z,96346.00
2023-03-29T05:41:11.605Z,96352.00
2023-03-29T05:42:12.584Z,96352.00
2023-03-29T05:43:12.598Z,96350.00
2023-03-29T05:44:12.555Z,96348.00
2023-03-29T05:48:11.563Z,96356.00
2023-03-29T05:49:12.602Z,96352.00
2023-03-29T05:50:12.600Z,96356.00
2023-03-29T05:53:11.553Z,96356.00
2023-03-29T05:54:12.638Z,96354.00
2023-03-29T05:56:11.549Z,96352.00
2023-03-29T05:57:12.619Z,96350.00
2023-03-29T05:58:12.556Z,96352.00
2023-03-29T06:02:11.664Z,96350.00
2023-03-29T06:03:20.188Z,96352.00
2023-03-29T06:04:12.673Z,96358.00
2023-03-29T06:05:12.552Z,96362.00
2023-03-29T06:06:12.556Z,96368.00
2023-03-29T06:07:12.690Z,96370.00
2023-03-29T06:08:12.547Z,96368.00
2023-03-29T06:09:12.572Z,96362.00
2023-03-29T06:10:11.545Z,96360.00
2023-03-29T06:11:12.539Z,96362.00
2023-03-29T06:12:12.659Z,96360.00
2023-03-29T06:13:12.506Z,96364.00
2023-03-29T06:14:12.647Z,96362.00
2023-03-29T06:15:12.724Z,96364.00
2023-03-29T06:18:12.390Z,96364.00
2023-03-29T06:19:11.522Z,96368.00
2023-03-29T06:20:12.476Z,96370.00
2023-03-29T06:21:15.480Z,96370.00
2023-03-29T06:25:11.607Z,96378.00
2023-03-29T06:26:11.435Z,96372.00
2023-03-29T06:27:12.567Z,96370.00
2023-03-29T06:30:11.423Z,96378.00
2023-03-29T06:31:12.487Z,96380.00
2023-03-29T06:32:11.401Z,96376.00
2023-03-29T06:33:12.392Z,96374.00
2023-03-29T06:34:12.421Z,96372.00
2023-03-29T06:35:12.936Z,96374.00
2023-03-29T06:40:11.349Z,96380.00
2023-03-29T06:41:12.382Z,96380.00
2023-03-29T06:42:20.490Z,96384.00
2023-03-29T06:43:12.386Z,96388.00
2023-03-29T06:46:11.965Z,96386.00
2023-03-29T06:47:12.327Z,96382.00
2023-03-29T06:48:12.299Z,96382.00
2023-03-29T06:51:11.301Z,96384.00
2023-03-29T06:52:11.546Z,96384.00
2023-03-29T06:53:12.275Z,96386.00
2023-03-29T06:54:12.261Z,96386.00
2023-03-29T06:55:12.264Z,96386.00
2023-03-29T06:56:12.467Z,96384.00
2023-03-29T06:57:13.469Z,96388.00
2023-03-29T06:58:12.446Z,96390.00
2023-03-29T07:02:11.584Z,96399.00
2023-03-29T07:04:11.618Z,96397.00
2023-03-29T07:05:12.610Z,96397.00
2023-03-29T07:06:12.640Z,96399.00
2023-03-29T07:07:11.710Z,96401.00
2023-03-29T07:08:12.723Z,96399.00
2023-03-29T07:09:12.734Z,96403.00
2023-03-29T07:10:12.836Z,96405.00
2023-03-29T07:11:13.150Z,96405.00
2023-03-29T07:13:11.767Z,96405.00
2023-03-29T07:14:12.071Z,96405.00
2023-03-29T07:15:18.732Z,96401.00
2023-03-29T07:17:11.726Z,96401.00
2023-03-29T07:21:11.724Z,96390.00
2023-03-29T07:22:11.707Z,96391.00
2023-03-29T07:23:12.687Z,96388.00
2023-03-29T07:28:11.657Z,96399.00
2023-03-29T07:29:12.696Z,96393.00
2023-03-29T07:30:12.647Z,96391.00
2023-03-29T07:32:11.699Z,96393.00
2023-03-29T07:33:12.740Z,96395.00
2023-03-29T07:35:11.622Z,96393.00
2023-03-29T07:36:12.677Z,96393.00
2023-03-29T07:37:12.623Z,96395.00
2023-03-29T07:41:11.585Z,96405.00
2023-03-29T07:42:12.578Z,96403.00
2023-03-29T07:43:13.079Z,96407.00
2023-03-29T07:44:12.573Z,96411.00
2023-03-29T07:46:11.607Z,96413.00
2023-03-29T07:47:12.577Z,96411.00
2023-03-29T07:49:11.608Z,96415.00
2023-03-29T07:50:12.677Z,96413.00
2023-03-29T07:51:12.719Z,96413.00
2023-03-29T07:52:13.084Z,96417.00
2023-03-29T07:53:12.822Z,96413.00
2023-03-29T07:54:12.879Z,96409.00
2023-03-29T07:55:12.962Z,96411.00
2023-03-29T07:56:12.991Z,96405.00
2023-03-29T07:57:13.068Z,96407.00
2023-03-29T07:58:13.120Z,96403.00
2023-03-29T07:59:13.178Z,96405.00
2023-03-29T08:00:12.239Z,96405.00
2023-03-29T08:01:15.348Z,96401.00
2023-03-29T08:06:12.259Z,96399.00
2023-03-29T08:07:13.283Z,96397.00
2023-03-29T08:11:12.242Z,96401.00
2023-03-29T08:12:13.230Z,96403.00
2023-03-29T08:13:12.212Z,96401.00
2023-03-29T08:14:13.232Z,96397.00
2023-03-29T08:18:12.227Z,96403.00
2023-03-29T08:21:12.166Z,96399.00
2023-03-29T08:22:13.147Z,96399.00
2023-03-29T08:24:12.153Z,96397.00
2023-03-29T08:25:13.144Z,96397.00
2023-03-29T08:26:12.140Z,96399.00
2023-03-29T08:29:12.150Z,96397.00
2023-03-29T08:30:13.142Z,96397.00
2023-03-29T08:31:13.296Z,96403.00
2023-03-29T08:32:13.159Z,96405.00
2023-03-29T08:33:12.267Z,96407.00
2023-03-29T08:34:13.179Z,96405.00
2023-03-29T08:35:13.185Z,96403.00
2023-03-29T08:36:13.273Z,96403.00
2023-03-29T08:39:12.254Z,96405.00
2023-03-29T08:40:13.253Z,96409.00
2023-03-29T08:41:13.298Z,96403.00
2023-03-29T08:42:13.615Z,96407.00
2023-03-29T08:43:13.315Z,96407.00
2023-03-29T08:46:12.377Z,96403.00
2023-03-29T08:47:17.823Z,96403.00
2023-03-29T08:51:12.351Z,96407.00
2023-03-29T08:52:13.360Z,96405.00
2023-03-29T08:53:13.386Z,96403.00
2023-03-29T08:54:13.383Z,96403.00
2023-03-29T08:55:13.404Z,96403.00
2023-03-29T08:56:13.417Z,96407.00
2023-03-29T08:57:13.539Z,96413.00
2023-03-29T08:58:13.615Z,96417.00
2023-03-29T09:00:12.455Z,96423.00
2023-03-29T09:01:13.489Z,96419.00
2023-03-29T09:02:13.556Z,96417.00
2023-03-29T09:03:13.633Z,96413.00
2023-03-29T09:04:13.579Z,96415.00
2023-03-29T09:05:13.563Z,96411.00
2023-03-29T09:06:13.561Z,96409.00
2023-03-29T09:07:13.571Z,96407.00
2023-03-29T09:08:13.610Z,96405.00
2023-03-29T09:09:13.582Z,96405.00
2023-03-29T09:10:13.638Z,96405.00
2023-03-29T09:15:12.684Z,96413.00
2023-03-29T09:16:13.757Z,96415.00
2023-03-29T09:17:13.743Z,96417.00
2023-03-29T09:18:13.820Z,96415.00
2023-03-29T09:19:12.739Z,96417.00
2023-03-29T09:20:12.777Z,96419.00
2023-03-29T09:21:12.806Z,96421.00
2023-03-29T09:24:12.840Z,96423.00
2023-03-29T09:25:13.865Z,96425.00
2023-03-29T09:27:12.897Z,96421.00
2023-03-29T09:28:12.931Z,96423.00
2023-03-29T09:31:12.964Z,96419.00
2023-03-29T09:32:13.969Z,96417.00
2023-03-29T09:33:14.040Z,96419.00
2023-03-29T09:34:15.307Z,96421.00
2023-03-29T09:36:13.040Z,96423.00
2023-03-29T09:39:12.975Z,96429.00
2023-03-29T09:40:13.971Z,96429.00
2023-03-29T09:44:27.669Z,96425.00
2023-03-29T09:45:13.938Z,96423.00
2023-03-29T09:46:12.971Z,96421.00
2023-03-29T09:47:13.926Z,96421.00
2023-03-29T09:48:14.144Z,96417.00
2023-03-29T09:52:12.930Z,96411.00
2023-03-29T09:53:13.169Z,96407.00
2023-03-29T09:54:13.872Z,96405.00
2023-03-29T09:56:12.870Z,96405.00
2023-03-29T09:57:13.902Z,96405.00
2023-03-29T09:58:13.898Z,96407.00
2023-03-29T09:59:13.830Z,96409.00
2023-03-29T10:00:13.843Z,96409.00
2023-03-29T10:02:12.853Z,96409.00
2023-03-29T10:03:13.892Z,96405.00
2023-03-29T10:04:13.976Z,96405.00
2023-03-29T10:05:13.023Z,96409.00
2023-03-29T10:06:14.058Z,96411.00
2023-03-29T10:07:14.066Z,96403.00
2023-03-29T10:11:13.289Z,96409.00
2023-03-29T10:14:13.413Z,96411.00
2023-03-29T10:15:26.768Z,96403.00
2023-03-29T10:17:13.427Z,96407.00
2023-03-29T10:18:14.446Z,96409.00
2023-03-29T10:19:14.401Z,96407.00
2023-03-29T10:21:13.381Z,96397.00
2023-03-29T10:23:13.389Z,96399.00
2023-03-29T10:24:14.383Z,96397.00
2023-03-29T10:25:14.386Z,96399.00
2023-03-29T10:26:13.360Z,96401.00
2023-03-29T10:27:14.348Z,96393.00
2023-03-29T10:28:14.398Z,96395.00
2023-03-29T10:32:13.301Z,96393.00
2023-03-29T10:33:14.308Z,96391.00
2023-03-29T10:34:13.314Z,96386.00
2023-03-29T10:35:14.277Z,96388.00
2023-03-29T10:36:14.306Z,96390.00
2023-03-29T10:41:13.287Z,96382.00
2023-03-29T10:42:14.254Z,96384.00
2023-03-29T10:43:14.241Z,96382.00
2023-03-29T10:44:14.641Z,96382.00
2023-03-29T10:46:13.418Z,96378.00
2023-03-29T10:47:13.233Z,96376.00
2023-03-29T10:48:14.256Z,96374.00
2023-03-29T10:49:14.293Z,96372.00
2023-03-29T10:50:14.305Z,96376.00
2023-03-29T10:51:14.331Z,96376.00
2023-03-29T10:52:14.313Z,96372.00
2023-03-29T10:55:13.307Z,96370.00
2023-03-29T10:56:14.320Z,96372.00
2023-03-29T10:57:14.401Z,96372.00
2023-03-29T10:58:14.313Z,96374.00
2023-03-29T10:59:14.343Z,96374.00
2023-03-29T11:00:14.375Z,96372.00
2023-03-29T11:01:13.387Z,96370.00
2023-03-29T11:02:13.418Z,96372.00
2023-03-29T11:03:17.052Z,96376.00
2023-03-29T11:04:14.384Z,96378.00
2023-03-29T11:08:13.350Z,96364.00
2023-03-29T11:09:14.358Z,96362.00
2023-03-29T11:10:14.354Z,96364.00
2023-03-29T11:13:13.593Z,96350.00
2023-03-29T11:14:14.808Z,96344.00
2023-03-29T11:17:13.292Z,96344.00
2023-03-29T11:18:14.297Z,96344.00
2023-03-29T11:20:13.271Z,96337.00
2023-03-29T11:21:13.261Z,96339.00
2023-03-29T11:22:14.248Z,96341.00
2023-03-29T11:23:14.587Z,96341.00
2023-03-29T11:25:13.271Z,96343.00
2023-03-29T11:26:14.239Z,96348.00
2023-03-29T11:28:13.354Z,96352.00
2023-03-29T11:29:15.049Z,96352.00
2023-03-29T11:33:13.433Z,96350.00
2023-03-29T11:34:14.434Z,96348.00
2023-03-29T11:35:15.066Z,96352.00
2023-03-29T11:37:13.544Z,96348.00
2023-03-29T11:38:14.576Z,96344.00
2023-03-29T11:39:13.667Z,96339.00
2023-03-29T11:40:15.391Z,96341.00
2023-03-29T11:41:14.702Z,96341.00
2023-03-29T11:43:13.731Z,96343.00
2023-03-29T11:44:14.820Z,96339.00
2023-03-29T11:46:13.914Z,96337.00
2023-03-29T11:47:14.890Z,96339.00
2023-03-29T11:48:14.919Z,96339.00
2023-03-29T11:49:14.957Z,96335.00
2023-03-29T11:50:13.963Z,96331.00
2023-03-29T11:51:15.003Z,96329.00
2023-03-29T11:52:15.023Z,96325.00
2023-03-29T11:53:15.068Z,96327.00
2023-03-29T11:54:15.123Z,96329.00
2023-03-29T11:55:15.145Z,96327.00
2023-03-29T11:56:15.461Z,96329.00
2023-03-29T12:01:14.394Z,96313.00
2023-03-29T12:04:14.469Z,96315.00
2023-03-29T12:05:15.499Z,96317.00
2023-03-29T12:06:15.819Z,96311.00
2023-03-29T12:09:16.647Z,96311.00
2023-03-29T12:10:15.668Z,96313.00
2023-03-29T12:11:15.704Z,96309.00
2023-03-29T12:12:15.752Z,96309.00
2023-03-29T12:13:15.766Z,96305.00
2023-03-29T12:16:14.883Z,96299.00
2023-03-29T12:17:15.909Z,96301.00
2023-03-29T12:18:15.965Z,96299.00
2023-03-29T12:19:14.947Z,96301.00
2023-03-29T12:20:15.929Z,96299.00
2023-03-29T12:24:15.063Z,96292.00
2023-03-29T12:30:15.257Z,96282.00
2023-03-29T12:33:16.044Z,96284.00
2023-03-29T12:34:16.378Z,96284.00
2023-03-29T12:35:16.421Z,96282.00
2023-03-29T12:39:15.431Z,96282.00
2023-03-29T12:40:16.509Z,96280.00
2023-03-29T12:45:15.757Z,96274.00
2023-03-29T12:46:16.880Z,96270.00
2023-03-29T12:48:15.876Z,96264.00
2023-03-29T12:49:19.213Z,96264.00
2023-03-29T12:51:15.888Z,96264.00
2023-03-29T12:52:16.869Z,96256.00
2023-03-29T12:53:16.878Z,96258.00
2023-03-29T12:56:15.859Z,96256.00
2023-03-29T12:57:16.882Z,96250.00
2023-03-29T13:01:15.890Z,96241.00
2023-03-29T13:02:16.890Z,96241.00
2023-03-29T13:04:15.799Z,96239.00
2023-03-29T13:05:16.912Z,96241.00
2023-03-29T13:07:15.782Z,96233.00
2023-03-29T13:08:15.809Z,96231.00
2023-03-29T13:09:16.771Z,96229.00
2023-03-29T13:12:15.869Z,96225.00
2023-03-29T13:13:16.784Z,96227.00
2023-03-29T13:14:16.792Z,96231.00
2023-03-29T13:15:16.848Z,96235.00
2023-03-29T13:16:16.948Z,96237.00
2023-03-29T13:17:18.913Z,96231.00
2023-03-29T13:21:15.950Z,96221.00
2023-03-29T13:22:16.926Z,96217.00
2023-03-29T13:24:15.902Z,96219.00
2023-03-29T13:25:16.883Z,96217.00
2023-03-29T13:31:15.863Z,96196.00
2023-03-29T13:32:16.841Z,96200.00
2023-03-29T13:34:15.819Z,96205.00
2023-03-29T13:35:16.833Z,96203.00
2023-03-29T13:37:15.830Z,96198.00
2023-03-29T13:38:16.815Z,96194.00
2023-03-29T13:39:16.802Z,96196.00
2023-03-29T13:44:15.751Z,96198.00
2023-03-29T13:45:16.822Z,96198.00
2023-03-29T13:46:16.794Z,96196.00
2023-03-29T13:47:16.732Z,96190.00
2023-03-29T13:52:15.712Z,96194.00
2023-03-29T13:53:16.714Z,96190.00
2023-03-29T13:54:16.691Z,96192.00
2023-03-29T13:59:15.650Z,96190.00
2023-03-29T14:00:15.732Z,96190.00
2023-03-29T14:01:16.723Z,96194.00
2023-03-29T14:03:15.698Z,96188.00
2023-03-29T14:04:16.635Z,96188.00
2023-03-29T14:05:16.775Z,96184.00
2023-03-29T14:06:16.696Z,96188.00
2023-03-29T14:07:16.712Z,96186.00
2023-03-29T14:08:16.782Z,96186.00
2023-03-29T14:10:15.798Z,96184.00
2023-03-29T14:11:16.826Z,96182.00
2023-03-29T14:14:15.898Z,96192.00
2023-03-29T14:15:16.928Z,96196.00
2023-03-29T14:16:16.988Z,96196.00
2023-03-29T14:17:16.981Z,96198.00
2023-03-29T14:20:16.070Z,96196.00
2023-03-29T14:21:17.112Z,96198.00
2023-03-29T14:22:17.112Z,96202.00
2023-03-29T14:23:17.133Z,96200.00
2023-03-29T14:27:16.274Z,96196.00
2023-03-29T14:28:17.286Z,96196.00
2023-03-29T14:29:17.307Z,96194.00
2023-03-29T14:30:17.335Z,96194.00
2023-03-29T14:35:16.492Z,96192.00
2023-03-29T14:36:17.713Z,96192.00
2023-03-29T14:37:16.562Z,96190.00
2023-03-29T14:38:17.653Z,96186.00
2023-03-29T14:43:16.813Z,96194.00
2023-03-29T14:44:17.853Z,96198.00
2023-03-29T14:45:17.898Z,96200.00
2023-03-29T14:46:17.953Z,96196.00
2023-03-29T14:47:17.981Z,96196.00
2023-03-29T14:48:18.034Z,96198.00
2023-03-29T14:49:18.064Z,96198.00
2023-03-29T14:50:18.119Z,96194.00
2023-03-29T14:51:17.169Z,96196.00
2023-03-29T14:52:18.196Z,96194.00
2023-03-29T14:53:18.240Z,96196.00
2023-03-29T14:54:18.286Z,96198.00
2023-03-29T14:55:18.328Z,96196.00
2023-03-29T14:56:18.389Z,96196.00
2023-03-29T14:57:18.527Z,96196.00
2023-03-29T14:58:18.472Z,96190.00
2023-03-29T14:59:18.526Z,96188.00
2023-03-29T15:00:17.637Z,96192.00
2023-03-29T15:01:18.627Z,96188.00
2023-03-29T15:02:18.668Z,96190.00
2023-03-29T15:03:18.781Z,96188.00
2023-03-29T15:07:17.915Z,96184.00
2023-03-29T15:08:18.973Z,96180.00
2023-03-29T15:09:19.029Z,96166.00
2023-03-29T15:10:19.100Z,96166.00
2023-03-29T15:11:19.176Z,96164.00
2023-03-29T15:12:18.234Z,96166.00
2023-03-29T15:13:19.264Z,96166.00
2023-03-29T15:14:19.333Z,96170.00
2023-03-29T15:15:19.405Z,96182.00
2023-03-29T15:20:18.696Z,96184.00
2023-03-29T15:21:19.765Z,96186.00
2023-03-29T15:22:19.835Z,96190.00
2023-03-29T15:23:19.909Z,96192.00